sensor_id;sensor_type;location;lat;lon;timestamp;P1;P2;P0
68198;PMS7003;55021;51.554;17.044;2023-02-11T00:05:07;76.50;56.75;33.00
68198;PMS7003;55021;51.554;17.044;2023-02-11T00:20:10;80.75;59.25;36.00
68198;PMS7003;55021;51.554;17.044;2023-02-11T00:35:12;55.25;48.00;29.75
68198;PMS7003;55021;51.554;17.044;2023-02-11T00:50:15;62.25;44.75;26.50
68198;PMS7003;55021;51.554;17.044;2023-02-11T01:05:17;57.00;47.25;28.00
68198;PMS7003;55021;51.554;17.044;2023-02-11T01:20:21;54.50;47.25;29.75
68198;PMS7003;55021;51.554;17.044;2023-02-11T01:35:26;50.00;43.00;23.50
68198;PMS7003;55021;51.554;17.044;2023-02-11T01:50:28;56.75;45.50;27.50
68198;PMS7003;55021;51.554;17.044;2023-02-11T02:05:33;64.50;49.75;31.75
68198;PMS7003;55021;51.554;17.044;2023-02-11T02:36:17;57.25;47.25;29.25
68198;PMS7003;55021;51.554;17.044;2023-02-11T03:06:51;66.25;50.00;31.25
68198;PMS7003;55021;51.554;17.044;2023-02-11T03:22:00;67.75;52.25;31.25
68198;PMS7003;55021;51.554;17.044;2023-02-11T03:37:08;70.50;53.00;30.25
68198;PMS7003;55021;51.554;17.044;2023-02-11T03:52:14;62.25;47.75;29.75
68198;PMS7003;55021;51.554;17.044;2023-02-11T04:07:19;67.00;51.25;30.00
68198;PMS7003;55021;51.554;17.044;2023-02-11T04:22:22;68.50;51.50;30.00
68198;PMS7003;55021;51.554;17.044;2023-02-11T04:37:24;67.00;49.00;29.75
68198;PMS7003;55021;51.554;17.044;2023-02-11T04:52:26;65.25;48.25;29.75
68198;PMS7003;55021;51.554;17.044;2023-02-11T05:07:29;58.75;49.25;27.75
68198;PMS7003;55021;51.554;17.044;2023-02-11T05:22:31;65.25;48.25;29.75
68198;PMS7003;55021;51.554;17.044;2023-02-11T05:37:35;62.75;49.00;28.75
68198;PMS7003;55021;51.554;17.044;2023-02-11T05:52:38;68.50;50.75;29.25
68198;PMS7003;55021;51.554;17.044;2023-02-11T06:07:40;61.50;49.50;32.00
68198;PMS7003;55021;51.554;17.044;2023-02-11T06:22:43;68.25;49.75;29.00
68198;PMS7003;55021;51.554;17.044;2023-02-11T06:37:45;67.00;49.25;29.50
68198;PMS7003;55021;51.554;17.044;2023-02-11T06:52:48;70.75;50.00;29.75
68198;PMS7003;55021;51.554;17.044;2023-02-11T07:07:50;70.75;51.25;30.50
68198;PMS7003;55021;51.554;17.044;2023-02-11T07:22:53;68.00;52.00;31.00
68198;PMS7003;55021;51.554;17.044;2023-02-11T07:37:55;70.00;52.50;30.75
68198;PMS7003;55021;51.554;17.044;2023-02-11T07:52:57;68.00;52.50;32.00
68198;PMS7003;55021;51.554;17.044;2023-02-11T08:08:00;72.50;54.25;33.50
68198;PMS7003;55021;51.554;17.044;2023-02-11T08:23:02;74.00;53.50;32.50
68198;PMS7003;55021;51.554;17.044;2023-02-11T08:38:06;74.75;54.75;32.75
68198;PMS7003;55021;51.554;17.044;2023-02-11T08:53:09;70.75;55.50;31.00
68198;PMS7003;55021;51.554;17.044;2023-02-11T09:08:12;71.50;53.25;31.75
68198;PMS7003;55021;51.554;17.044;2023-02-11T09:23:15;69.00;55.00;31.25
68198;PMS7003;55021;51.554;17.044;2023-02-11T09:38:17;73.25;54.50;31.50
68198;PMS7003;55021;51.554;17.044;2023-02-11T09:53:21;68.75;52.25;32.50
68198;PMS7003;55021;51.554;17.044;2023-02-11T10:08:27;74.75;51.75;31.25
68198;PMS7003;55021;51.554;17.044;2023-02-11T10:23:38;76.00;54.75;31.50
68198;PMS7003;55021;51.554;17.044;2023-02-11T10:38:45;71.25;51.25;30.25
68198;PMS7003;55021;51.554;17.044;2023-02-11T10:53:48;68.25;52.75;30.00
68198;PMS7003;55021;51.554;17.044;2023-02-11T11:08:59;69.75;50.50;28.50
68198;PMS7003;55021;51.554;17.044;2023-02-11T11:24:02;68.50;51.25;28.50
68198;PMS7003;55021;51.554;17.044;2023-02-11T11:39:16;68.00;50.25;30.25
68198;PMS7003;55021;51.554;17.044;2023-02-11T11:54:21;76.75;54.50;32.00
68198;PMS7003;55021;51.554;17.044;2023-02-11T12:09:29;71.25;54.25;30.00
68198;PMS7003;55021;51.554;17.044;2023-02-11T12:24:45;79.00;55.75;31.25
68198;PMS7003;55021;51.554;17.044;2023-02-11T12:40:02;66.50;49.25;28.25
68198;PMS7003;55021;51.554;17.044;2023-02-11T12:55:18;61.50;44.25;25.50
68198;PMS7003;55021;51.554;17.044;2023-02-11T13:10:28;50.50;43.00;25.50
68198;PMS7003;55021;51.554;17.044;2023-02-11T13:25:37;51.25;41.75;24.25
68198;PMS7003;55021;51.554;17.044;2023-02-11T13:40:49;53.50;41.00;21.00
68198;PMS7003;55021;51.554;17.044;2023-02-11T13:56:08;52.75;40.75;25.00
68198;PMS7003;55021;51.554;17.044;2023-02-11T14:26:43;57.25;42.75;23.75
68198;PMS7003;55021;51.554;17.044;2023-02-11T14:41:51;58.00;43.25;24.25
68198;PMS7003;55021;51.554;17.044;2023-02-11T15:12:16;63.50;47.50;27.25
68198;PMS7003;55021;51.554;17.044;2023-02-11T15:27:21;59.50;44.50;25.00
68198;PMS7003;55021;51.554;17.044;2023-02-11T15:42:25;69.25;50.50;30.00
68198;PMS7003;55021;51.554;17.044;2023-02-11T15:57:28;61.25;44.50;26.75
68198;PMS7003;55021;51.554;17.044;2023-02-11T16:12:31;64.50;46.25;29.25
68198;PMS7003;55021;51.554;17.044;2023-02-11T16:27:35;59.50;47.50;29.50
68198;PMS7003;55021;51.554;17.044;2023-02-11T16:42:41;66.75;48.00;27.00
68198;PMS7003;55021;51.554;17.044;2023-02-11T16:57:43;68.50;48.75;28.75
68198;PMS7003;55021;51.554;17.044;2023-02-11T17:12:46;65.75;45.25;28.50
68198;PMS7003;55021;51.554;17.044;2023-02-11T17:27:48;59.75;47.25;27.25
68198;PMS7003;55021;51.554;17.044;2023-02-11T17:42:51;56.50;44.25;26.25
68198;PMS7003;55021;51.554;17.044;2023-02-11T17:57:53;59.25;43.50;25.00
68198;PMS7003;55021;51.554;17.044;2023-02-11T18:12:56;54.50;42.25;24.50
68198;PMS7003;55021;51.554;17.044;2023-02-11T18:27:58;53.75;40.75;23.00
68198;PMS7003;55021;51.554;17.044;2023-02-11T18:43:00;49.50;42.50;22.50
68198;PMS7003;55021;51.554;17.044;2023-02-11T18:58:03;52.75;35.25;19.50
68198;PMS7003;55021;51.554;17.044;2023-02-11T19:13:05;47.00;38.00;21.75
68198;PMS7003;55021;51.554;17.044;2023-02-11T19:28:08;47.00;39.75;20.75
68198;PMS7003;55021;51.554;17.044;2023-02-11T19:43:10;44.00;39.50;21.75
68198;PMS7003;55021;51.554;17.044;2023-02-11T19:58:12;51.75;39.50;22.25
68198;PMS7003;55021;51.554;17.044;2023-02-11T20:13:15;57.50;40.00;23.25
68198;PMS7003;55021;51.554;17.044;2023-02-11T20:28:18;58.50;43.75;23.50
68198;PMS7003;55021;51.554;17.044;2023-02-11T20:43:21;50.00;42.25;22.50
68198;PMS7003;55021;51.554;17.044;2023-02-11T20:58:23;57.50;42.25;24.25
68198;PMS7003;55021;51.554;17.044;2023-02-11T21:13:26;56.75;39.50;22.00
68198;PMS7003;55021;51.554;17.044;2023-02-11T21:28:29;42.00;36.00;20.00
68198;PMS7003;55021;51.554;17.044;2023-02-11T21:43:31;52.75;41.00;24.25
68198;PMS7003;55021;51.554;17.044;2023-02-11T21:58:34;42.00;36.50;21.00
68198;PMS7003;55021;51.554;17.044;2023-02-11T22:13:37;41.50;37.50;20.25
68198;PMS7003;55021;51.554;17.044;2023-02-11T22:28:40;54.00;39.75;19.75
68198;PMS7003;55021;51.554;17.044;2023-02-11T22:43:43;38.25;34.50;19.75
68198;PMS7003;55021;51.554;17.044;2023-02-11T22:58:46;47.50;37.75;20.50
68198;PMS7003;55021;51.554;17.044;2023-02-11T23:13:50;44.25;34.75;18.50
68198;PMS7003;55021;51.554;17.044;2023-02-11T23:28:53;41.50;32.50;17.75
68198;PMS7003;55021;51.554;17.044;2023-02-11T23:43:56;42.50;31.50;18.50
68198;PMS7003;55021;51.554;17.044;2023-02-11T23:58:58;33.00;29.00;17.00
